sensor_id;sensor_type;location;lat;lon;timestamp;temperature;humidity
22491;DHT22;11412;50.802;4.350;2023-06-19T00:02:02;20.90;99.90
22491;DHT22;11412;50.802;4.350;2023-06-19T00:04:28;20.80;99.90
22491;DHT22;11412;50.802;4.350;2023-06-19T00:06:54;21.00;99.90
22491;DHT22;11412;50.802;4.350;2023-06-19T00:09:19;21.00;99.90
22491;DHT22;11412;50.802;4.350;2023-06-19T00:11:46;20.80;99.90
22491;DHT22;11412;50.802;4.350;2023-06-19T00:14:11;20.80;99.90
22491;DHT22;11412;50.802;4.350;2023-06-19T00:16:37;20.80;99.90
22491;DHT22;11412;50.802;4.350;2023-06-19T00:19:03;20.60;99.90
22491;DHT22;11412;50.802;4.350;2023-06-19T00:21:29;20.90;99.90
22491;DHT22;11412;50.802;4.350;2023-06-19T00:23:55;21.10;99.90
22491;DHT22;11412;50.802;4.350;2023-06-19T00:26:21;21.10;99.90
22491;DHT22;11412;50.802;4.350;2023-06-19T00:28:51;21.00;99.90
22491;DHT22;11412;50.802;4.350;2023-06-19T00:31:17;20.90;99.90
22491;DHT22;11412;50.802;4.350;2023-06-19T00:33:44;20.80;99.90
22491;DHT22;11412;50.802;4.350;2023-06-19T00:36:11;20.80;99.90
22491;DHT22;11412;50.802;4.350;2023-06-19T00:38:38;20.40;99.90
22491;DHT22;11412;50.802;4.350;2023-06-19T00:41:05;20.40;99.90
22491;DHT22;11412;50.802;4.350;2023-06-19T00:43:31;20.30;99.90
22491;DHT22;11412;50.802;4.350;2023-06-19T00:46:00;20.30;99.90
22491;DHT22;11412;50.802;4.350;2023-06-19T00:48:27;20.50;99.90
22491;DHT22;11412;50.802;4.350;2023-06-19T00:50:53;20.60;99.90
22491;DHT22;11412;50.802;4.350;2023-06-19T00:53:19;20.40;99.90
22491;DHT22;11412;50.802;4.350;2023-06-19T00:55:46;20.50;99.90
22491;DHT22;11412;50.802;4.350;2023-06-19T00:58:13;20.70;99.90
22491;DHT22;11412;50.802;4.350;2023-06-19T01:00:39;20.60;99.90
22491;DHT22;11412;50.802;4.350;2023-06-19T01:03:05;20.40;99.90
22491;DHT22;11412;50.802;4.350;2023-06-19T01:05:30;20.50;99.90
22491;DHT22;11412;50.802;4.350;2023-06-19T01:08:00;20.60;99.90
22491;DHT22;11412;50.802;4.350;2023-06-19T01:13:33;20.60;99.90
22491;DHT22;11412;50.802;4.350;2023-06-19T01:16:03;20.70;99.90
22491;DHT22;11412;50.802;4.350;2023-06-19T01:18:30;20.70;99.90
22491;DHT22;11412;50.802;4.350;2023-06-19T01:21:08;20.80;99.90
22491;DHT22;11412;50.802;4.350;2023-06-19T01:23:33;20.60;99.90
22491;DHT22;11412;50.802;4.350;2023-06-19T01:25:59;20.40;99.90
22491;DHT22;11412;50.802;4.350;2023-06-19T01:28:25;20.40;99.90
22491;DHT22;11412;50.802;4.350;2023-06-19T01:30:52;20.40;99.90
22491;DHT22;11412;50.802;4.350;2023-06-19T01:33:23;20.60;99.90
22491;DHT22;11412;50.802;4.350;2023-06-19T01:35:52;20.80;99.90
22491;DHT22;11412;50.802;4.350;2023-06-19T01:38:19;20.70;99.90
22491;DHT22;11412;50.802;4.350;2023-06-19T01:40:48;20.70;99.90
22491;DHT22;11412;50.802;4.350;2023-06-19T01:43:15;20.70;99.90
22491;DHT22;11412;50.802;4.350;2023-06-19T01:45:41;20.70;99.90
22491;DHT22;11412;50.802;4.350;2023-06-19T01:48:08;20.50;99.90
22491;DHT22;11412;50.802;4.350;2023-06-19T01:50:33;20.60;99.90
22491;DHT22;11412;50.802;4.350;2023-06-19T01:53:00;20.70;99.90
22491;DHT22;11412;50.802;4.350;2023-06-19T01:55:25;20.80;99.90
22491;DHT22;11412;50.802;4.350;2023-06-19T01:57:51;20.80;99.90
22491;DHT22;11412;50.802;4.350;2023-06-19T02:00:17;20.90;99.90
22491;DHT22;11412;50.802;4.350;2023-06-19T02:02:43;20.80;99.90
22491;DHT22;11412;50.802;4.350;2023-06-19T02:05:09;20.70;99.90
22491;DHT22;11412;50.802;4.350;2023-06-19T02:07:34;20.80;99.90
22491;DHT22;11412;50.802;4.350;2023-06-19T02:10:00;20.90;99.90
22491;DHT22;11412;50.802;4.350;2023-06-19T02:12:26;20.90;99.90
22491;DHT22;11412;50.802;4.350;2023-06-19T02:14:52;20.80;99.90
22491;DHT22;11412;50.802;4.350;2023-06-19T02:17:17;20.60;99.90
22491;DHT22;11412;50.802;4.350;2023-06-19T02:19:43;20.60;99.90
22491;DHT22;11412;50.802;4.350;2023-06-19T02:22:09;20.70;99.90
22491;DHT22;11412;50.802;4.350;2023-06-19T02:24:34;20.50;99.90
22491;DHT22;11412;50.802;4.350;2023-06-19T02:27:02;20.50;99.90
22491;DHT22;11412;50.802;4.350;2023-06-19T02:29:28;20.40;99.90
22491;DHT22;11412;50.802;4.350;2023-06-19T02:31:55;20.50;99.90
22491;DHT22;11412;50.802;4.350;2023-06-19T02:34:21;20.30;99.90
22491;DHT22;11412;50.802;4.350;2023-06-19T02:36:49;20.40;99.90
22491;DHT22;11412;50.802;4.350;2023-06-19T02:39:15;20.60;99.90
22491;DHT22;11412;50.802;4.350;2023-06-19T02:41:41;20.80;99.90
22491;DHT22;11412;50.802;4.350;2023-06-19T02:44:14;20.60;99.90
22491;DHT22;11412;50.802;4.350;2023-06-19T02:46:40;20.60;99.90
22491;DHT22;11412;50.802;4.350;2023-06-19T02:49:05;20.70;99.90
22491;DHT22;11412;50.802;4.350;2023-06-19T02:51:31;20.40;99.90
22491;DHT22;11412;50.802;4.350;2023-06-19T02:53:57;20.30;99.90
22491;DHT22;11412;50.802;4.350;2023-06-19T02:56:24;20.20;99.90
22491;DHT22;11412;50.802;4.350;2023-06-19T02:58:50;20.30;99.90
22491;DHT22;11412;50.802;4.350;2023-06-19T03:01:16;20.50;99.90
22491;DHT22;11412;50.802;4.350;2023-06-19T03:03:42;20.40;99.90
22491;DHT22;11412;50.802;4.350;2023-06-19T03:06:08;20.20;99.90
22491;DHT22;11412;50.802;4.350;2023-06-19T03:08:35;20.20;99.90
22491;DHT22;11412;50.802;4.350;2023-06-19T03:11:00;20.40;99.90
22491;DHT22;11412;50.802;4.350;2023-06-19T03:13:26;20.60;99.90
22491;DHT22;11412;50.802;4.350;2023-06-19T03:15:52;20.50;99.90
22491;DHT22;11412;50.802;4.350;2023-06-19T03:18:17;20.30;99.90
22491;DHT22;11412;50.802;4.350;2023-06-19T03:20:43;20.20;99.90
22491;DHT22;11412;50.802;4.350;2023-06-19T03:23:09;20.10;99.90
22491;DHT22;11412;50.802;4.350;2023-06-19T03:25:34;20.00;99.90
22491;DHT22;11412;50.802;4.350;2023-06-19T03:28:03;19.90;99.90
22491;DHT22;11412;50.802;4.350;2023-06-19T03:30:30;19.70;99.90
22491;DHT22;11412;50.802;4.350;2023-06-19T03:32:56;19.70;99.90
22491;DHT22;11412;50.802;4.350;2023-06-19T03:35:21;19.70;99.90
22491;DHT22;11412;50.802;4.350;2023-06-19T03:37:47;19.80;99.90
22491;DHT22;11412;50.802;4.350;2023-06-19T03:40:13;19.80;99.90
22491;DHT22;11412;50.802;4.350;2023-06-19T03:42:40;20.00;99.90
22491;DHT22;11412;50.802;4.350;2023-06-19T03:45:06;19.90;99.90
22491;DHT22;11412;50.802;4.350;2023-06-19T03:47:32;19.80;99.90
22491;DHT22;11412;50.802;4.350;2023-06-19T03:49:57;19.60;99.90
22491;DHT22;11412;50.802;4.350;2023-06-19T03:52:23;19.70;99.90
22491;DHT22;11412;50.802;4.350;2023-06-19T03:54:49;19.80;99.90
22491;DHT22;11412;50.802;4.350;2023-06-19T03:57:15;19.70;99.90
22491;DHT22;11412;50.802;4.350;2023-06-19T03:59:40;19.70;99.90
22491;DHT22;11412;50.802;4.350;2023-06-19T04:02:06;19.70;99.90
22491;DHT22;11412;50.802;4.350;2023-06-19T04:04:32;19.60;99.90
22491;DHT22;11412;50.802;4.350;2023-06-19T04:06:57;19.60;99.90
22491;DHT22;11412;50.802;4.350;2023-06-19T04:09:24;19.40;99.90
22491;DHT22;11412;50.802;4.350;2023-06-19T04:11:50;19.40;99.90
22491;DHT22;11412;50.802;4.350;2023-06-19T04:14:16;19.30;99.90
22491;DHT22;11412;50.802;4.350;2023-06-19T04:16:42;19.40;99.90
22491;DHT22;11412;50.802;4.350;2023-06-19T04:19:08;19.30;99.90
22491;DHT22;11412;50.802;4.350;2023-06-19T04:21:33;19.30;99.90
22491;DHT22;11412;50.802;4.350;2023-06-19T04:23:59;19.30;99.90
22491;DHT22;11412;50.802;4.350;2023-06-19T04:26:25;19.20;99.90
22491;DHT22;11412;50.802;4.350;2023-06-19T04:28:50;19.10;99.90
22491;DHT22;11412;50.802;4.350;2023-06-19T04:31:16;19.00;99.90
22491;DHT22;11412;50.802;4.350;2023-06-19T04:33:46;19.30;99.90
22491;DHT22;11412;50.802;4.350;2023-06-19T04:36:12;19.50;99.90
22491;DHT22;11412;50.802;4.350;2023-06-19T04:38:38;19.30;99.90
22491;DHT22;11412;50.802;4.350;2023-06-19T04:41:03;19.40;99.90
22491;DHT22;11412;50.802;4.350;2023-06-19T04:43:29;19.20;99.90
22491;DHT22;11412;50.802;4.350;2023-06-19T04:45:54;19.10;99.90
22491;DHT22;11412;50.802;4.350;2023-06-19T04:48:20;19.10;99.90
22491;DHT22;11412;50.802;4.350;2023-06-19T04:50:51;19.40;99.90
22491;DHT22;11412;50.802;4.350;2023-06-19T04:53:16;19.30;99.90
22491;DHT22;11412;50.802;4.350;2023-06-19T04:55:42;19.20;99.90
22491;DHT22;11412;50.802;4.350;2023-06-19T04:58:09;19.10;99.90
22491;DHT22;11412;50.802;4.350;2023-06-19T05:00:34;19.10;99.90
22491;DHT22;11412;50.802;4.350;2023-06-19T05:03:00;19.00;99.90
22491;DHT22;11412;50.802;4.350;2023-06-19T05:05:27;19.00;99.90
22491;DHT22;11412;50.802;4.350;2023-06-19T05:07:53;19.10;99.90
22491;DHT22;11412;50.802;4.350;2023-06-19T05:10:19;19.20;99.90
22491;DHT22;11412;50.802;4.350;2023-06-19T05:12:45;19.20;99.90
22491;DHT22;11412;50.802;4.350;2023-06-19T05:15:10;19.10;99.90
22491;DHT22;11412;50.802;4.350;2023-06-19T05:17:36;19.10;99.90
22491;DHT22;11412;50.802;4.350;2023-06-19T05:20:05;19.00;99.90
22491;DHT22;11412;50.802;4.350;2023-06-19T05:22:33;19.00;99.90
22491;DHT22;11412;50.802;4.350;2023-06-19T05:25:00;19.00;99.90
22491;DHT22;11412;50.802;4.350;2023-06-19T05:27:26;19.00;99.90
22491;DHT22;11412;50.802;4.350;2023-06-19T05:29:51;19.00;99.90
22491;DHT22;11412;50.802;4.350;2023-06-19T05:32:17;19.20;99.90
22491;DHT22;11412;50.802;4.350;2023-06-19T05:34:43;19.40;99.90
22491;DHT22;11412;50.802;4.350;2023-06-19T05:37:08;19.30;99.90
22491;DHT22;11412;50.802;4.350;2023-06-19T05:39:34;19.40;99.90
22491;DHT22;11412;50.802;4.350;2023-06-19T05:41:59;19.40;99.90
22491;DHT22;11412;50.802;4.350;2023-06-19T05:44:25;19.30;99.90
22491;DHT22;11412;50.802;4.350;2023-06-19T05:46:51;19.30;99.90
22491;DHT22;11412;50.802;4.350;2023-06-19T05:49:17;19.30;99.90
22491;DHT22;11412;50.802;4.350;2023-06-19T05:51:42;19.30;99.90
22491;DHT22;11412;50.802;4.350;2023-06-19T05:54:08;19.10;99.90
22491;DHT22;11412;50.802;4.350;2023-06-19T05:56:35;19.20;99.90
22491;DHT22;11412;50.802;4.350;2023-06-19T05:59:02;19.30;99.90
22491;DHT22;11412;50.802;4.350;2023-06-19T06:01:31;19.30;99.90
22491;DHT22;11412;50.802;4.350;2023-06-19T06:03:57;19.30;99.90
22491;DHT22;11412;50.802;4.350;2023-06-19T06:06:23;19.20;99.90
22491;DHT22;11412;50.802;4.350;2023-06-19T06:08:49;19.40;99.90
22491;DHT22;11412;50.802;4.350;2023-06-19T06:11:17;19.50;99.90
22491;DHT22;11412;50.802;4.350;2023-06-19T06:13:42;19.60;99.90
22491;DHT22;11412;50.802;4.350;2023-06-19T06:16:08;19.50;99.90
22491;DHT22;11412;50.802;4.350;2023-06-19T06:18:34;19.40;99.90
22491;DHT22;11412;50.802;4.350;2023-06-19T06:21:00;19.40;99.90
22491;DHT22;11412;50.802;4.350;2023-06-19T06:23:26;19.20;99.90
22491;DHT22;11412;50.802;4.350;2023-06-19T06:25:51;19.30;99.90
22491;DHT22;11412;50.802;4.350;2023-06-19T06:28:17;19.40;99.90
22491;DHT22;11412;50.802;4.350;2023-06-19T06:30:43;19.30;99.90
22491;DHT22;11412;50.802;4.350;2023-06-19T06:33:09;19.20;99.90
22491;DHT22;11412;50.802;4.350;2023-06-19T06:35:35;19.20;99.90
22491;DHT22;11412;50.802;4.350;2023-06-19T06:38:02;19.30;99.90
22491;DHT22;11412;50.802;4.350;2023-06-19T06:40:27;19.30;99.90
22491;DHT22;11412;50.802;4.350;2023-06-19T06:42:53;19.40;99.90
22491;DHT22;11412;50.802;4.350;2023-06-19T06:45:19;19.50;99.90
22491;DHT22;11412;50.802;4.350;2023-06-19T06:47:45;19.40;99.90
22491;DHT22;11412;50.802;4.350;2023-06-19T06:50:11;19.30;99.90
22491;DHT22;11412;50.802;4.350;2023-06-19T06:52:37;19.40;99.90
22491;DHT22;11412;50.802;4.350;2023-06-19T06:55:04;19.50;99.90
22491;DHT22;11412;50.802;4.350;2023-06-19T06:57:30;19.50;99.90
22491;DHT22;11412;50.802;4.350;2023-06-19T06:59:55;19.60;99.90
22491;DHT22;11412;50.802;4.350;2023-06-19T07:02:21;19.40;99.90
22491;DHT22;11412;50.802;4.350;2023-06-19T07:04:47;19.40;99.90
22491;DHT22;11412;50.802;4.350;2023-06-19T07:07:13;19.40;99.90
22491;DHT22;11412;50.802;4.350;2023-06-19T07:09:38;19.30;99.90
22491;DHT22;11412;50.802;4.350;2023-06-19T07:12:04;19.20;99.90
22491;DHT22;11412;50.802;4.350;2023-06-19T07:14:32;19.20;99.90
22491;DHT22;11412;50.802;4.350;2023-06-19T07:16:58;19.50;99.90
22491;DHT22;11412;50.802;4.350;2023-06-19T07:19:24;19.70;99.90
22491;DHT22;11412;50.802;4.350;2023-06-19T07:21:52;19.80;99.90
22491;DHT22;11412;50.802;4.350;2023-06-19T07:24:18;20.20;99.90
22491;DHT22;11412;50.802;4.350;2023-06-19T07:26:46;20.00;99.90
22491;DHT22;11412;50.802;4.350;2023-06-19T07:29:12;20.20;99.90
22491;DHT22;11412;50.802;4.350;2023-06-19T07:31:38;20.30;99.90
22491;DHT22;11412;50.802;4.350;2023-06-19T07:34:04;20.60;99.90
22491;DHT22;11412;50.802;4.350;2023-06-19T07:36:29;20.60;99.90
22491;DHT22;11412;50.802;4.350;2023-06-19T07:38:55;20.60;99.90
22491;DHT22;11412;50.802;4.350;2023-06-19T07:41:21;20.70;99.90
22491;DHT22;11412;50.802;4.350;2023-06-19T07:43:46;20.80;99.90
22491;DHT22;11412;50.802;4.350;2023-06-19T07:46:12;20.70;99.90
22491;DHT22;11412;50.802;4.350;2023-06-19T07:48:38;20.80;99.90
22491;DHT22;11412;50.802;4.350;2023-06-19T07:51:03;20.90;99.90
22491;DHT22;11412;50.802;4.350;2023-06-19T07:53:29;20.70;99.90
22491;DHT22;11412;50.802;4.350;2023-06-19T07:55:55;20.50;99.90
22491;DHT22;11412;50.802;4.350;2023-06-19T07:58:20;20.50;99.90
22491;DHT22;11412;50.802;4.350;2023-06-19T08:00:46;20.50;99.90
22491;DHT22;11412;50.802;4.350;2023-06-19T08:03:12;20.70;99.90
22491;DHT22;11412;50.802;4.350;2023-06-19T08:05:37;20.80;99.90
22491;DHT22;11412;50.802;4.350;2023-06-19T08:08:03;20.90;99.90
22491;DHT22;11412;50.802;4.350;2023-06-19T08:10:29;21.00;99.90
22491;DHT22;11412;50.802;4.350;2023-06-19T08:12:55;21.20;99.90
22491;DHT22;11412;50.802;4.350;2023-06-19T08:15:21;21.60;99.90
22491;DHT22;11412;50.802;4.350;2023-06-19T08:17:46;22.00;99.90
22491;DHT22;11412;50.802;4.350;2023-06-19T08:20:12;22.20;99.90
22491;DHT22;11412;50.802;4.350;2023-06-19T08:22:38;22.20;99.90
22491;DHT22;11412;50.802;4.350;2023-06-19T08:25:04;22.10;99.90
22491;DHT22;11412;50.802;4.350;2023-06-19T08:27:30;22.50;99.90
22491;DHT22;11412;50.802;4.350;2023-06-19T08:29:56;22.70;99.90
22491;DHT22;11412;50.802;4.350;2023-06-19T08:32:21;22.70;99.90
22491;DHT22;11412;50.802;4.350;2023-06-19T08:34:47;22.90;99.90
22491;DHT22;11412;50.802;4.350;2023-06-19T08:37:13;23.00;99.90
22491;DHT22;11412;50.802;4.350;2023-06-19T08:39:38;23.50;99.90
22491;DHT22;11412;50.802;4.350;2023-06-19T08:42:08;23.70;99.90
22491;DHT22;11412;50.802;4.350;2023-06-19T08:44:35;23.90;99.90
22491;DHT22;11412;50.802;4.350;2023-06-19T08:47:04;23.90;99.90
22491;DHT22;11412;50.802;4.350;2023-06-19T08:49:31;24.00;99.90
22491;DHT22;11412;50.802;4.350;2023-06-19T08:51:59;24.00;99.90
22491;DHT22;11412;50.802;4.350;2023-06-19T08:54:24;24.10;99.90
22491;DHT22;11412;50.802;4.350;2023-06-19T08:56:50;23.80;99.90
22491;DHT22;11412;50.802;4.350;2023-06-19T08:59:19;23.40;99.90
22491;DHT22;11412;50.802;4.350;2023-06-19T09:01:53;23.40;99.90
22491;DHT22;11412;50.802;4.350;2023-06-19T09:04:24;22.90;99.90
22491;DHT22;11412;50.802;4.350;2023-06-19T09:07:00;23.30;99.90
22491;DHT22;11412;50.802;4.350;2023-06-19T09:09:27;23.20;99.90
22491;DHT22;11412;50.802;4.350;2023-06-19T09:17:07;23.50;99.90
22491;DHT22;11412;50.802;4.350;2023-06-19T09:19:35;23.80;99.90
22491;DHT22;11412;50.802;4.350;2023-06-19T09:22:06;24.00;99.90
22491;DHT22;11412;50.802;4.350;2023-06-19T09:24:40;23.90;99.90
22491;DHT22;11412;50.802;4.350;2023-06-19T09:27:09;24.10;99.90
22491;DHT22;11412;50.802;4.350;2023-06-19T09:29:38;24.50;99.90
22491;DHT22;11412;50.802;4.350;2023-06-19T09:32:24;24.00;99.90
22491;DHT22;11412;50.802;4.350;2023-06-19T09:34:52;23.80;99.90
22491;DHT22;11412;50.802;4.350;2023-06-19T09:37:29;23.60;99.90
22491;DHT22;11412;50.802;4.350;2023-06-19T09:40:00;23.60;99.90
22491;DHT22;11412;50.802;4.350;2023-06-19T09:42:31;23.90;99.90
22491;DHT22;11412;50.802;4.350;2023-06-19T09:45:05;23.70;99.90
22491;DHT22;11412;50.802;4.350;2023-06-19T09:47:36;23.30;99.90
22491;DHT22;11412;50.802;4.350;2023-06-19T09:50:03;22.90;99.90
22491;DHT22;11412;50.802;4.350;2023-06-19T09:52:29;23.10;99.90
22491;DHT22;11412;50.802;4.350;2023-06-19T09:54:55;23.30;99.90
22491;DHT22;11412;50.802;4.350;2023-06-19T09:57:23;23.40;99.90
22491;DHT22;11412;50.802;4.350;2023-06-19T09:59:54;23.20;99.90
22491;DHT22;11412;50.802;4.350;2023-06-19T10:02:22;23.20;99.90
22491;DHT22;11412;50.802;4.350;2023-06-19T10:04:53;23.10;99.90
22491;DHT22;11412;50.802;4.350;2023-06-19T10:07:22;23.40;99.90
22491;DHT22;11412;50.802;4.350;2023-06-19T10:10:03;23.60;99.90
22491;DHT22;11412;50.802;4.350;2023-06-19T10:12:45;23.80;99.90
22491;DHT22;11412;50.802;4.350;2023-06-19T10:15:20;24.30;99.90
22491;DHT22;11412;50.802;4.350;2023-06-19T10:18:02;24.60;99.90
22491;DHT22;11412;50.802;4.350;2023-06-19T10:20:37;25.00;99.90
22491;DHT22;11412;50.802;4.350;2023-06-19T10:23:20;25.30;99.90
22491;DHT22;11412;50.802;4.350;2023-06-19T10:25:54;25.60;99.90
22491;DHT22;11412;50.802;4.350;2023-06-19T10:28:31;25.40;99.90
22491;DHT22;11412;50.802;4.350;2023-06-19T10:30:58;25.70;99.90
22491;DHT22;11412;50.802;4.350;2023-06-19T10:33:28;26.00;99.90
22491;DHT22;11412;50.802;4.350;2023-06-19T10:35:55;26.10;99.90
22491;DHT22;11412;50.802;4.350;2023-06-19T10:38:20;26.30;99.90
22491;DHT22;11412;50.802;4.350;2023-06-19T10:40:46;26.50;99.90
22491;DHT22;11412;50.802;4.350;2023-06-19T10:43:22;26.20;99.90
22491;DHT22;11412;50.802;4.350;2023-06-19T10:45:51;26.00;99.90
22491;DHT22;11412;50.802;4.350;2023-06-19T10:48:23;25.70;99.90
22491;DHT22;11412;50.802;4.350;2023-06-19T10:50:50;25.70;99.90
22491;DHT22;11412;50.802;4.350;2023-06-19T10:53:28;26.20;99.90
22491;DHT22;11412;50.802;4.350;2023-06-19T10:55:56;26.70;99.90
22491;DHT22;11412;50.802;4.350;2023-06-19T10:58:22;26.50;99.90
22491;DHT22;11412;50.802;4.350;2023-06-19T11:00:48;26.60;99.90
22491;DHT22;11412;50.802;4.350;2023-06-19T11:03:14;26.50;99.90
22491;DHT22;11412;50.802;4.350;2023-06-19T11:05:43;26.10;99.90
22491;DHT22;11412;50.802;4.350;2023-06-19T11:08:09;26.40;99.90
22491;DHT22;11412;50.802;4.350;2023-06-19T11:10:35;26.50;99.90
22491;DHT22;11412;50.802;4.350;2023-06-19T11:13:01;26.80;99.90
22491;DHT22;11412;50.802;4.350;2023-06-19T11:15:30;26.80;99.90
22491;DHT22;11412;50.802;4.350;2023-06-19T11:17:57;26.90;99.90
22491;DHT22;11412;50.802;4.350;2023-06-19T11:20:23;27.00;99.90
22491;DHT22;11412;50.802;4.350;2023-06-19T11:22:55;27.50;99.90
22491;DHT22;11412;50.802;4.350;2023-06-19T11:25:21;27.80;99.90
22491;DHT22;11412;50.802;4.350;2023-06-19T11:27:46;27.60;99.90
22491;DHT22;11412;50.802;4.350;2023-06-19T11:30:18;27.40;99.90
22491;DHT22;11412;50.802;4.350;2023-06-19T11:32:46;27.90;99.90
22491;DHT22;11412;50.802;4.350;2023-06-19T11:35:15;27.70;99.90
22491;DHT22;11412;50.802;4.350;2023-06-19T11:37:43;27.30;99.90
22491;DHT22;11412;50.802;4.350;2023-06-19T11:40:09;27.80;99.90
22491;DHT22;11412;50.802;4.350;2023-06-19T11:42:47;27.80;99.90
22491;DHT22;11412;50.802;4.350;2023-06-19T11:45:13;27.70;99.90
22491;DHT22;11412;50.802;4.350;2023-06-19T11:47:39;27.90;99.90
22491;DHT22;11412;50.802;4.350;2023-06-19T11:50:06;28.30;99.90
22491;DHT22;11412;50.802;4.350;2023-06-19T11:52:32;28.30;99.90
22491;DHT22;11412;50.802;4.350;2023-06-19T11:54:57;28.50;99.90
22491;DHT22;11412;50.802;4.350;2023-06-19T11:57:23;28.50;99.90
22491;DHT22;11412;50.802;4.350;2023-06-19T11:59:49;28.80;99.90
22491;DHT22;11412;50.802;4.350;2023-06-19T12:02:14;28.80;99.90
22491;DHT22;11412;50.802;4.350;2023-06-19T12:04:40;28.70;99.90
22491;DHT22;11412;50.802;4.350;2023-06-19T12:07:05;28.90;99.90
22491;DHT22;11412;50.802;4.350;2023-06-19T12:09:31;28.90;99.90
22491;DHT22;11412;50.802;4.350;2023-06-19T12:11:58;28.90;99.90
22491;DHT22;11412;50.802;4.350;2023-06-19T12:14:23;28.80;99.90
22491;DHT22;11412;50.802;4.350;2023-06-19T12:16:50;29.10;99.90
22491;DHT22;11412;50.802;4.350;2023-06-19T12:19:16;29.00;99.90
22491;DHT22;11412;50.802;4.350;2023-06-19T12:21:42;29.10;99.90
22491;DHT22;11412;50.802;4.350;2023-06-19T12:24:07;29.10;99.90
22491;DHT22;11412;50.802;4.350;2023-06-19T12:26:36;29.00;99.90
22491;DHT22;11412;50.802;4.350;2023-06-19T12:29:03;28.60;99.90
22491;DHT22;11412;50.802;4.350;2023-06-19T12:31:29;28.50;99.90
22491;DHT22;11412;50.802;4.350;2023-06-19T12:33:55;28.70;99.90
22491;DHT22;11412;50.802;4.350;2023-06-19T12:36:21;29.00;99.90
22491;DHT22;11412;50.802;4.350;2023-06-19T12:38:46;29.30;99.90
22491;DHT22;11412;50.802;4.350;2023-06-19T12:41:14;29.20;99.90
22491;DHT22;11412;50.802;4.350;2023-06-19T12:43:40;29.00;99.90
22491;DHT22;11412;50.802;4.350;2023-06-19T12:46:06;29.00;99.90
22491;DHT22;11412;50.802;4.350;2023-06-19T12:48:32;29.10;99.90
22491;DHT22;11412;50.802;4.350;2023-06-19T12:50:58;29.00;99.90
22491;DHT22;11412;50.802;4.350;2023-06-19T12:53:23;29.40;99.90
22491;DHT22;11412;50.802;4.350;2023-06-19T12:55:52;29.40;99.90
22491;DHT22;11412;50.802;4.350;2023-06-19T12:58:19;29.40;99.90
22491;DHT22;11412;50.802;4.350;2023-06-19T13:00:44;29.20;99.90
22491;DHT22;11412;50.802;4.350;2023-06-19T13:03:10;29.50;99.90
22491;DHT22;11412;50.802;4.350;2023-06-19T13:05:35;29.60;99.90
22491;DHT22;11412;50.802;4.350;2023-06-19T13:08:01;29.60;99.90
22491;DHT22;11412;50.802;4.350;2023-06-19T13:10:27;29.30;99.90
22491;DHT22;11412;50.802;4.350;2023-06-19T13:12:53;29.40;99.90
22491;DHT22;11412;50.802;4.350;2023-06-19T13:15:18;29.40;99.90
22491;DHT22;11412;50.802;4.350;2023-06-19T13:17:44;29.50;99.90
22491;DHT22;11412;50.802;4.350;2023-06-19T13:20:10;29.50;99.90
22491;DHT22;11412;50.802;4.350;2023-06-19T13:22:35;29.50;99.90
22491;DHT22;11412;50.802;4.350;2023-06-19T13:25:01;29.10;99.90
22491;DHT22;11412;50.802;4.350;2023-06-19T13:27:27;29.40;99.90
22491;DHT22;11412;50.802;4.350;2023-06-19T13:29:54;29.30;99.90
22491;DHT22;11412;50.802;4.350;2023-06-19T13:32:20;29.00;99.90
22491;DHT22;11412;50.802;4.350;2023-06-19T13:34:45;28.50;99.90
22491;DHT22;11412;50.802;4.350;2023-06-19T13:37:11;28.80;99.90
22491;DHT22;11412;50.802;4.350;2023-06-19T13:39:37;28.70;99.90
22491;DHT22;11412;50.802;4.350;2023-06-19T13:42:03;28.90;99.90
22491;DHT22;11412;50.802;4.350;2023-06-19T13:44:29;29.00;99.90
22491;DHT22;11412;50.802;4.350;2023-06-19T13:46:55;29.00;99.90
22491;DHT22;11412;50.802;4.350;2023-06-19T13:49:20;28.90;99.90
22491;DHT22;11412;50.802;4.350;2023-06-19T13:51:46;29.20;99.90
22491;DHT22;11412;50.802;4.350;2023-06-19T13:54:12;29.00;99.90
22491;DHT22;11412;50.802;4.350;2023-06-19T13:56:39;28.90;99.90
22491;DHT22;11412;50.802;4.350;2023-06-19T13:59:05;28.80;99.90
22491;DHT22;11412;50.802;4.350;2023-06-19T14:01:31;29.00;99.90
22491;DHT22;11412;50.802;4.350;2023-06-19T14:03:57;29.00;99.90
22491;DHT22;11412;50.802;4.350;2023-06-19T14:06:24;29.10;99.90
22491;DHT22;11412;50.802;4.350;2023-06-19T14:08:50;29.00;99.90
22491;DHT22;11412;50.802;4.350;2023-06-19T14:11:16;29.20;99.90
22491;DHT22;11412;50.802;4.350;2023-06-19T14:13:42;29.10;99.90
22491;DHT22;11412;50.802;4.350;2023-06-19T14:16:08;29.50;99.90
22491;DHT22;11412;50.802;4.350;2023-06-19T14:18:33;29.30;99.90
22491;DHT22;11412;50.802;4.350;2023-06-19T14:21:02;29.30;99.90
22491;DHT22;11412;50.802;4.350;2023-06-19T14:23:27;29.40;99.90
22491;DHT22;11412;50.802;4.350;2023-06-19T14:25:53;29.30;99.90
22491;DHT22;11412;50.802;4.350;2023-06-19T14:28:18;29.10;99.90
22491;DHT22;11412;50.802;4.350;2023-06-19T14:30:44;28.90;99.90
22491;DHT22;11412;50.802;4.350;2023-06-19T14:33:10;29.10;99.90
22491;DHT22;11412;50.802;4.350;2023-06-19T14:35:41;28.80;99.90
22491;DHT22;11412;50.802;4.350;2023-06-19T14:38:07;29.00;99.90
22491;DHT22;11412;50.802;4.350;2023-06-19T14:40:32;28.90;99.90
22491;DHT22;11412;50.802;4.350;2023-06-19T14:42:58;29.00;99.90
22491;DHT22;11412;50.802;4.350;2023-06-19T14:45:23;28.80;99.90
22491;DHT22;11412;50.802;4.350;2023-06-19T14:47:49;28.30;99.90
22491;DHT22;11412;50.802;4.350;2023-06-19T14:50:15;28.30;99.90
22491;DHT22;11412;50.802;4.350;2023-06-19T14:52:41;28.50;99.90
22491;DHT22;11412;50.802;4.350;2023-06-19T14:55:07;28.10;99.90
22491;DHT22;11412;50.802;4.350;2023-06-19T14:57:32;27.90;99.90
22491;DHT22;11412;50.802;4.350;2023-06-19T14:59:58;27.70;99.90
22491;DHT22;11412;50.802;4.350;2023-06-19T15:02:24;27.60;99.90
22491;DHT22;11412;50.802;4.350;2023-06-19T15:04:49;27.50;99.90
22491;DHT22;11412;50.802;4.350;2023-06-19T15:07:15;27.70;99.90
22491;DHT22;11412;50.802;4.350;2023-06-19T15:09:41;27.80;99.90
22491;DHT22;11412;50.802;4.350;2023-06-19T15:12:07;27.90;99.90
22491;DHT22;11412;50.802;4.350;2023-06-19T15:14:32;28.00;99.90
22491;DHT22;11412;50.802;4.350;2023-06-19T15:16:59;27.90;99.90
22491;DHT22;11412;50.802;4.350;2023-06-19T15:19:24;28.10;99.90
22491;DHT22;11412;50.802;4.350;2023-06-19T15:21:50;28.20;99.90
22491;DHT22;11412;50.802;4.350;2023-06-19T15:24:15;28.20;99.90
22491;DHT22;11412;50.802;4.350;2023-06-19T15:26:41;28.20;99.90
22491;DHT22;11412;50.802;4.350;2023-06-19T15:29:07;28.40;99.90
22491;DHT22;11412;50.802;4.350;2023-06-19T15:31:32;28.20;99.90
22491;DHT22;11412;50.802;4.350;2023-06-19T15:33:58;28.00;99.90
22491;DHT22;11412;50.802;4.350;2023-06-19T15:36:24;27.80;99.90